Terminal Aerodrome Forecast
Issued by NWS

Home | Current Version | Previous Version | Text Only | Print | Product List | Glossary On
Versions: 1 2 3 4 5 6 7 8 9 10 11 12 13
004
FTUS42 TJSJ 240520
TAFJBQ
TAF
TJBQ 240520Z 2406/2506 10005KT P6SM SCT100
     FM241500 08013KT P6SM SCT030
     FM241700 08014G20KT P6SM VCTS SCT025CB BKN050
     FM242300 10007KT P6SM SCT040 SCT060 BKN120
      AMD NOT SKED TIL 241100=

USA.gov is the U.S. government's official web portal to all federal, state and local government web resources and services.